• Join FlightAware (Why Join?)
  • Login
  • US Flag 
04:00PM EDT


 

Airport Tracker/Info


-or-


 

Live Flight TrackerFlight Track Log ✈ UAL4663 ✈ 29-Apr-2013 ✈ KEWR - KRDU

Flight Track Log - Related Links

Times and Time Zones

All times are in EDT time to prevent confusion due to time zone crossing. See the UAL4663 flight status page for this flight to view local times or setup timezone preferences in your user account.

Time Position Orientation Groundspeed Altitude Reporting Facility
EDT Latitude Longitude Course Direction KTS MPH feet Rate Location/Type
06:10PM 40.6500 -74.1833 180° South 162 186 2,000  Level New York TRACON
06:11PM 40.6167 -74.2167 217° Southwest 205 236 3,500 1,980 Climbing New York TRACON
06:12PM 40.5500 -74.2667 210° Southwest 245 282 5,800 1,260 Climbing New York TRACON
06:13PM 40.4833 -74.2500 169° South 249 287 6,100 360 Climbing New York TRACON
06:14PM 40.3056 -74.1528 159° South  Level FlightAware Approximate
06:15PM 40.2048 -74.1817 194° South  Level FlightAware Approximate
06:16PM 40.1048 -74.2167 180° South  Level FlightAware Approximate
06:16PM 40.3364 -74.2100 168° South 241 277 7,100  Level New York Center
06:17PM 40.2653 -74.2200 186° South 250 288 8,700 1,320 Climbing New York Center
06:19PM 40.0539 -74.2444 185° South 328 377 11,600 1,200 Climbing Washington Center
06:20PM 39.9647 -74.2975 205° Southwest 352 405 13,000 1,380 Climbing Washington Center
06:21PM 39.8844 -74.3719 215° Southwest 363 418 14,400 1,260 Climbing Washington Center
06:22PM 39.8183 -74.4325 215° Southwest 370 426 15,500 1,260 Climbing Washington Center
06:23PM 39.7422 -74.5336 226° Southwest 365 420 16,900 1,260 Climbing Washington Center
06:24PM 39.6722 -74.6264 226° Southwest 365 420 18,100 1,200 Climbing Washington Center
06:25PM 39.6019 -74.7189 225° Southwest 365 420 19,400 1,320 Climbing Washington Center
06:26PM 39.5317 -74.8114 225° Southwest 365 420 20,800 1,380 Climbing Washington Center
06:27PM 39.4614 -74.9033 225° Southwest 360 414 22,200 1,380 Climbing Washington Center
06:28PM 39.3933 -74.9928 225° Southwest 354 407 23,600 900 Climbing Washington Center
06:29PM 39.3228 -75.0819 224° Southwest 354 407 24,000 180 Climbing Washington Center
06:30PM 39.2461 -75.1842 226° Southwest 373 429 24,000  Level Washington Center
06:31PM 39.1650 -75.2864 224° Southwest 390 449 24,000  Level Washington Center
06:32PM 39.0819 -75.3939 225° Southwest 411 473 24,000  Level Washington Center
06:33PM 38.9986 -75.5036 226° Southwest 421 484 24,000  Level Washington Center
06:34PM 38.9111 -75.6103 224° Southwest 432 497 24,000  Level Washington Center
06:35PM 38.8131 -75.7061 217° Southwest 445 512 24,000  Level Washington Center
06:36PM 38.7192 -75.8019 219° Southwest 445 512 24,000  Level Washington Center
06:37PM 38.6211 -75.8892 215° Southwest 445 512 24,000  Level Washington Center
06:38PM 38.5292 -75.9792 217° Southwest 438 504 24,000  Level Washington Center
06:39PM 38.4328 -76.0689 216° Southwest 432 497 24,000  Level Washington Center
06:40PM 38.3303 -76.1714 218° Southwest 432 497 24,000  Level Washington Center
06:41PM 38.2486 -76.2500 217° Southwest 426 490 24,000 -240 Level Washington Center
06:42PM 38.1564 -76.3364 216° Southwest 421 484 23,600 -780 Descending Washington Center
06:43PM 38.0661 -76.4253 218° Southwest 421 484 22,500 -840 Descending Washington Center
06:44PM 37.9717 -76.5136 216° Southwest 421 484 22,000 -300 Descending Washington Center
06:45PM 37.8750 -76.6019 216° Southwest 421 484 22,000  Level Washington Center
06:46PM 37.7803 -76.6928 217° Southwest 421 484 22,000  Level Washington Center
06:47PM 37.6875 -76.7831 218° Southwest 421 484 22,000  Level Washington Center
06:48PM 37.5908 -76.8708 216° Southwest 426 490 22,000 -720 Level Washington Center
06:49PM 37.4981 -76.9608 218° Southwest 404 465 20,600 -2,040 Descending Washington Center
06:50PM 37.4158 -77.0378 217° Southwest 378 435 18,000 -3,240 Descending Washington Center
06:51PM 37.3272 -77.1144 215° Southwest 389 448 14,300 -2,940 Descending Washington Center
06:52PM 37.2389 -77.1781 210° Southwest 389 448 12,100 -1,680 Descending Washington Center
06:53PM 37.1567 -77.2361 209° Southwest 361 415 11,000 -600 Descending Washington Center
06:54PM 37.0722 -77.2969 210° Southwest 354 407 11,000 -420 Level Washington Center
06:55PM 37.0047 -77.3656 219° Southwest 354 407 10,200 -540 Descending Washington Center
06:56PM 36.9389 -77.4394 222° Southwest 340 391 10,000 -120 Descending Washington Center
06:57PM 36.8753 -77.5003 217° Southwest 317 365 10,000  Level Washington Center
06:58PM 36.8036 -77.5531 211° Southwest 307 353 10,100  Climbing Washington Center
06:59PM 36.7258 -77.5872 199° South 297 342 10,000  Descending Washington Center
07:00PM 36.6539 -77.6372 209° Southwest 297 342 10,100  Climbing Washington Center
07:01PM 36.5881 -77.7028 219° Southwest 297 342 10,000 -60 Descending Washington Center
07:02PM 36.5200 -77.7861 225° Southwest 321 369 10,000  Level Washington Center
07:03PM 36.4561 -77.8567 222° Southwest 326 375 10,100  Climbing Washington Center
07:04PM 36.3878 -77.9347 223° Southwest 313 360 10,100 -60 Level Washington Center
07:05PM 36.3322 -77.9925 220° Southwest 320 368 10,000 -120 Descending Washington Center
07:05PM 36.3217 -78.0075 229° Southwest 313 360 10,000 60 Level Washington Center
07:06PM 36.2683 -78.0625 220° Southwest 315 362 10,100  Climbing Washington Center
07:07PM 36.1872 -78.1528 222° Southwest 323 372 10,100 -120 Level Washington Center
07:08PM 36.1522 -78.2286 240° Southwest 279 321 9,900 -1,080 Descending Washington Center
07:09PM 36.1356 -78.3156 257° West 249 287 8,100 -1,440 Descending Washington Center
07:10PM 36.1419 -78.4006 275° West 249 287 7,000 -540 Descending Washington Center
07:11PM 36.1233 -78.4797 254° West 245 282 7,100 -480 Climbing Washington Center
07:12PM 36.0717 -78.5422 224° Southwest 248 285 6,100 -900 Descending Washington Center
07:13PM 36.0331 -78.5894 225° Southwest 199 229 5,400 -960 Descending Washington Center
07:14PM 35.9942 -78.6392 226° Southwest 193 222 4,300 -1,380 Descending Washington Center
07:15PM 35.9578 -78.6817 223° Southwest 199 229 2,800 -1,380 Descending Washington Center
07:16PM 35.9231 -78.7289 228° Southwest 185 213 1,700 -1,080 Descending Washington Center